La Loma Heliport

MRLO · San José, Costa Rica

METAR history MRLO · La Loma Heliport

Below you see METARs of the last few days. Select a year to browse through older METARs, from the year 2007 onwards.

April 21, 2024

Time Code Weather Temp. Visibility Ceiling Wind METAR/SPECI
21:00
V
23 °C 10 km+ 6,000 ft Var Var 2 kt METAR MROC 220300Z VRB02KT 9999 FEW008 BKN060 23/21 A3009 NOSIG
21:00
V
23 °C 10 km+ 6,000 ft Var Var 2 kt METAR MROC 220300Z VRB02KT 9999 FEW008 BKN060 23/21 A3009 NOSIG
20:00
M
23 °C 10 km+ 1,500 ft 270° 270° 5 kt METAR MROC 220200Z 27005KT 9999 BKN015 23/21 A3007 NOSIG
19:44
V
23 °C 10 km+ 3,500 ft 250° 250° 5 kt METAR MROC 220144Z 25005KT 9999 SCT010 BKN035 23/21 A3007 NOSIG
19:00
V
23 °C 10 km+ 20,000 ft 220° 220° 7 kt METAR MROC 220100Z 22007KT 9999 4000SW FEW010 SCT030 BKN200 23/21 A3005 NOSIG
18:00
V
24 °C 10 km+ 20,000 ft 240° 240° 7 kt METAR MROC 220000Z 24007KT 9999 FEW030 BKN200 24/19 A3003 NOSIG
17:00
V
26 °C 10 km+ 20,000 ft 260° 260° 9 kt METAR MROC 212300Z 26009KT 230V290 9999 FEW045 BKN200 26/19 A3001 NOSIG
16:00
V
27 °C 10 km+ 20,000 ft 230° 230° 10 kt METAR MROC 212200Z 23010KT 9999 FEW035 BKN200 27/19 A3000 NOSIG
15:00
V
28 °C 10 km+ 20,000 ft 230° 230° 14 kt METAR MROC 212100Z 23014KT 200V260 9999 FEW030 BKN200 28/20 A3001 NOSIG
14:00
V
29 °C 10 km+ 20,000 ft 250° 250° 10 kt METAR MROC 212000Z 25010KT 210V290 9999 SCT035 BKN200 29/19 A3002 NOSIG
13:00
V
29 °C 10 km+ 20,000 ft 240° 240° 14 kt METAR MROC 211900Z 24014KT 200V280 9999 SCT040 BKN200 29/19 A3005 NOSIG
12:00
V
29 °C 10 km+ 20,000 ft 230° 230° 13 kt METAR MROC 211800Z 23013KT 200V260 9999 FEW040 BKN200 29/20 A3007 NOSIG
11:00
V
29 °C 10 km+ 20,000 ft 240° 240° 12 kt METAR MROC 211700Z 24012KT 200V270 9999 FEW040 BKN200 29/19 A3009 NOSIG
10:00
V
28 °C 10 km+ 20,000 ft 260° 260° 13 kt METAR MROC 211600Z 26013KT 220V300 9999 FEW045 BKN200 28/18 A3010 NOSIG
09:00
V
28 °C 10 km+ 20,000 ft 250° 250° 6 kt METAR MROC 211500Z 25006KT 9999 FEW045 BKN200 28/14 A3011 NOSIG
08:00
V
26 °C 10 km+ - 030° 030° 3 kt METAR MROC 211400Z 03003KT CAVOK 26/15 A3011 BECMG 25006KT
07:00
V
23 °C 10 km+ - 080° 080° 6 kt METAR MROC 211300Z 08006KT CAVOK 23/15 A3009 NOSIG
06:00
V
20 °C 10 km+ - 070° 070° 5 kt METAR MROC 211200Z 07005KT 9999 VCFG NSC 20/16 A3007 NOSIG
05:00
V
20 °C 10 km+ - 060° 060° 5 kt METAR MROC 211100Z 06005KT 030V100 CAVOK 20/16 A3006 NOSIG
04:00
V
20 °C 10 km+ - 100° 100° 5 kt METAR MROC 211000Z 10005KT 080V140 CAVOK 20/16 A3006 NOSIG
03:00
V
20 °C 10 km+ - 090° 090° 4 kt METAR MROC 210900Z 09004KT CAVOK 20/16 A3005 NOSIG
02:00
V
21 °C 10 km+ - 020° 020° 3 kt METAR MROC 210800Z 02003KT 360V060 CAVOK 21/17 A3005 NOSIG
01:00
V
21 °C 10 km+ - 360° 360° 0 kt METAR MROC 210700Z 00000KT 9999 3500SW BCFG FEW002 SCT220 21/20 A3007 NOSIG
00:42
V
21 °C 10 km+ - 220° 220° 3 kt METAR MROC 210642Z 22003KT 190V260 9999 3500SW BCFG FEW002 SCT220 21/20 A3007 NOSIG
00:00
V
22 °C 10 km+ 22,000 ft Var Var 2 kt METAR MROC 210600Z VRB02KT 9999 BCFG FEW003 BKN220 22/18 A3008 NOSIG

April 20, 2024

Time Code Weather Temp. Visibility Ceiling Wind METAR/SPECI
23:00
V
23 °C 10 km+ - 040° 040° 4 kt METAR MROC 210500Z 04004KT 320V130 CAVOK 23/18 A3010 NOSIG
22:00
V
23 °C 10 km+ - 090° 090° 3 kt METAR MROC 210400Z 09003KT CAVOK 23/17 A3010 NOSIG
21:36
V
23 °C 10 km+ - 090° 090° 5 kt METAR MROC 210336Z 09005KT CAVOK 23/17 A3010 NOSIG
21:00
V
23 °C 10 km+ - Var Var 2 kt METAR MROC 210300Z VRB02KT 9999 FEW025 SCT120 23/21 A3010 NOSIG
20:00
M
23 °C 10 km+ 2,000 ft 220° 220° 3 kt METAR MROC 210200Z 22003KT 9999 FEW010 BKN020 23/21 A3009 NOSIG
19:00
V
23 °C 10 km+ 4,500 ft 210° 210° 5 kt METAR MROC 210100Z 21005KT 180V240 9999 FEW015 BKN045 23/21 A3007 NOSIG
18:00
V
24 °C 10 km+ 11,000 ft 230° 230° 10 kt METAR MROC 210000Z 23010KT 9999 FEW035 BKN110 24/20 A3004 NOSIG
17:00
V
27 °C 10 km+ 12,000 ft 230° 230° 11 kt METAR MROC 202300Z 23011KT 9999 FEW030 BKN120 27/20 A3002 NOSIG
16:00
V
28 °C 10 km+ - 240° 240° 12 kt METAR MROC 202200Z 24012KT 9999 -RA FEW020TCU SCT030 28/20 A3001 NOSIG
15:00
V
29 °C 10 km+ - 240° 240° 13 - 23 kt METAR MROC 202100Z 24013G23KT 9999 -RA FEW015TCU SCT040 29/20 A3001 NOSIG
14:00
V
31 °C 10 km+ - 270° 270° 15 - 25 kt METAR MROC 202000Z 27015G25KT 220V300 9999 SCT040 31/18 A3001 NOSIG
13:00
V
31 °C 10 km+ - 230° 230° 9 kt METAR MROC 201900Z 23009KT 180V280 9999 FEW040 SCT230 31/16 A3004 NOSIG
12:00
V
31 °C 10 km+ - 220° 220° 7 kt METAR MROC 201800Z 22007KT 190V260 9999 FEW045 SCT230 31/15 A3006 NOSIG
11:00
V
30 °C 10 km+ 23,000 ft 250° 250° 8 kt METAR MROC 201700Z 25008KT 210V300 9999 FEW045 BKN230 30/15 A3009 NOSIG
10:25
V
30 °C 10 km+ 23,000 ft 210° 210° 7 kt METAR MROC 201625Z 21007KT 170V250 9999 FEW035 BKN230 30/15 A3010 NOSIG
10:00
V
30 °C 10 km+ - 130° 130° 6 kt METAR MROC 201600Z 13006KT 070V190 CAVOK 30/14 A3010 BECMG 25008KT
09:00
V
29 °C 10 km+ - 120° 120° 8 kt METAR MROC 201500Z 12008KT 080V210 CAVOK 29/12 A3010 BECMG TL 1530 25008KT
08:00
V
26 °C 10 km+ - 100° 100° 9 kt METAR MROC 201400Z 10009KT 070V140 CAVOK 26/13 A3010 NOSIG
07:00
V
23 °C 10 km+ - 060° 060° 9 kt METAR MROC 201300Z 06009KT CAVOK 23/14 A3009 NOSIG
06:00
V
21 °C 10 km+ - 090° 090° 6 kt METAR MROC 201200Z 09006KT CAVOK 21/14 A3008 NOSIG
05:00
V
20 °C 10 km+ - 080° 080° 6 kt METAR MROC 201100Z 08006KT CAVOK 20/13 A3006 NOSIG
04:00
V
20 °C 10 km+ - 050° 050° 7 kt METAR MROC 201000Z 05007KT CAVOK 20/13 A3005 NOSIG
03:00
V
21 °C 10 km+ - 080° 080° 6 kt METAR MROC 200900Z 08006KT CAVOK 21/14 A3004 NOSIG
02:00
V
21 °C 10 km+ - 050° 050° 7 kt METAR MROC 200800Z 05007KT CAVOK 21/14 A3005 NOSIG
01:00
V
22 °C 10 km+ - 070° 070° 7 kt METAR MROC 200700Z 07007KT CAVOK 22/14 A3005 NOSIG
00:00
V
22 °C 10 km+ - 080° 080° 6 kt METAR MROC 200600Z 08006KT CAVOK 22/14 A3009 NOSIG

April 19, 2024

Time Code Weather Temp. Visibility Ceiling Wind METAR/SPECI
23:00
V
23 °C 10 km+ - 070° 070° 7 kt METAR MROC 200500Z 07007KT CAVOK 23/14 A3010 NOSIG
22:00
V
23 °C 10 km+ - 070° 070° 8 kt METAR MROC 200400Z 07008KT CAVOK 23/16 A3010 NOSIG
21:00
V
23 °C 10 km+ - 070° 070° 7 kt METAR MROC 200300Z 07007KT CAVOK 23/16 A3010 NOSIG
20:00
V
24 °C 10 km+ - 110° 110° 9 kt METAR MROC 200200Z 11009KT CAVOK 24/17 A3008 NOSIG
19:00
V
24 °C 10 km+ - 090° 090° 9 kt METAR MROC 200100Z 09009KT CAVOK 24/16 A3007 NOSIG
18:00
V
24 °C 10 km+ 22,000 ft 100° 100° 4 kt METAR MROC 200000Z 10004KT 9999 FEW040 BKN220 24/17 A3004 NOSIG
17:00
V
24 °C 10 km+ 6,000 ft 110° 110° 4 kt METAR MROC 192300Z 11004KT 080V150 9999 FEW035 BKN060 24/19 A3003 NOSIG
16:34
V
25 °C 10 km+ 3,500 ft 140° 140° 7 kt METAR MROC 192234Z 14007KT 100V170 9999 -RA BKN035 25/18 A3003 RETSRA NOSIG
16:00
M
27 °C 10 km+ 3,000 ft 170° 170° 8 kt METAR MROC 192200Z 17008KT 120V200 9999 TSRA BKN030CB 27/19 A3001 NOSIG
15:27
V
28 °C 10 km+ 4,000 ft 230° 230° 12 kt METAR MROC 192127Z 23012KT 200V260 9999 RA FEW035TCU BKN040 28/20 A2999 NOSIG
15:00
V
29 °C 10 km+ 4,000 ft 220° 220° 13 kt METAR MROC 192100Z 22013KT 9999 BKN040 29/20 A2999 NOSIG
14:00
V
30 °C 10 km+ 21,000 ft 240° 240° 12 - 22 kt METAR MROC 192000Z 24012G22KT 210V270 9999 SCT045 BKN210 30/18 A3001 NOSIG
13:00
V
30 °C 10 km+ 21,000 ft 240° 240° 10 kt METAR MROC 191900Z 24010KT 200V280 9999 SCT040 BKN210 30/18 A3002 NOSIG
12:00
V
30 °C 10 km+ - 240° 240° 11 kt METAR MROC 191800Z 24011KT 210V290 9999 FEW045 SCT240 30/18 A3005 NOSIG
11:00
V
30 °C 10 km+ 22,000 ft 250° 250° 10 kt METAR MROC 191700Z 25010KT 200V280 9999 FEW045 BKN220 30/18 A3006 NOSIG
10:00
V
29 °C 10 km+ 22,000 ft 240° 240° 9 kt METAR MROC 191600Z 24009KT 210V280 9999 FEW045 BKN220 29/16 A3007 NOSIG
09:00
V
29 °C 10 km+ - 220° 220° 7 kt METAR MROC 191500Z 22007KT 170V270 CAVOK 29/14 A3009 NOSIG
08:00
V
26 °C 10 km+ - 100° 100° 9 kt METAR MROC 191400Z 10009KT 080V150 CAVOK 26/15 A3009 NOSIG
07:00
V
24 °C 10 km+ - 100° 100° 9 kt METAR MROC 191300Z 10009KT 070V130 CAVOK 24/15 A3007 NOSIG
06:00
V
21 °C 10 km+ - 060° 060° 11 kt METAR MROC 191200Z 06011KT 020V080 CAVOK 21/15 A3005 NOSIG
05:00
V
21 °C 10 km+ - 080° 080° 9 kt METAR MROC 191100Z 08009KT CAVOK 21/15 A3004 NOSIG
04:00
V
21 °C 10 km+ - 090° 090° 7 kt METAR MROC 191000Z 09007KT 060V120 CAVOK 21/15 A3002 NOSIG
03:00
V
21 °C 10 km+ - 070° 070° 10 kt METAR MROC 190900Z 07010KT CAVOK 21/14 A3003 NOSIG
02:00
V
22 °C 10 km+ - 050° 050° 9 kt METAR MROC 190800Z 05009KT CAVOK 22/13 A3004 NOSIG
01:00
V
22 °C 10 km+ - 050° 050° 7 kt METAR MROC 190700Z 05007KT CAVOK 22/14 A3005 NOSIG
00:00
V
22 °C 10 km+ - 070° 070° 8 kt METAR MROC 190600Z 07008KT CAVOK 22/14 A3006 NOSIG
Report a change